Time;durP1;ratioP1;P1;durP2;ratioP2;P2;SDS_P1;SDS_P2;PMS_P1;PMS_P2;Temp;Humidity;BMP_temperature;BMP_pressure;BME280_temperature;BME280_humidity;BME280_pressure;Samples;Min_cycle;Max_cycle;Signal;HPM_P1;HPM_P2
2022/09/05 00:02:02;;;;;;;;;;;;;;;28.49;38.05;94705.81;4951143;28;7895;-61
2022/09/05 00:05:21;;;;;;;;;;;;;;;28.48;38.58;94696.00;4950947;28;7682;-61
2022/09/05 00:08:11;;;;;;;;;;;;;;;28.49;38.58;94693.97;4876241;29;7221;-60
2022/09/05 00:11:07;;;;;;;;;;;;;;;28.47;38.73;94696.53;4859999;29;7799;-61
2022/09/05 00:14:12;;;;;;;;;;;;;;;28.45;38.40;94693.53;4875333;29;7270;-61
2022/09/05 00:17:02;;;;;;;;;;;;;;;28.44;38.74;94698.31;4862503;29;7409;-60
2022/09/05 00:19:54;;;;;;;;;;;;;;;28.46;38.62;94698.53;4875192;29;7287;-61
2022/09/05 00:22:57;;;;;;;;;;;;;;;28.45;38.14;94693.53;4875521;29;7275;-61
2022/09/05 00:25:44;;;;;;;;;;;;;;;28.44;39.30;94689.25;4859889;29;7220;-61
2022/09/05 00:29:05;;;;;;;;;;;;;;;28.42;38.68;94691.81;4877338;29;9004;-61
2022/09/05 00:32:16;;;;;;;;;;;;;;;28.42;38.64;94692.56;4875186;29;7476;-60
2022/09/05 00:35:22;;;;;;;;;;;;;;;28.38;38.85;94687.31;4875356;29;7212;-60
2022/09/05 00:38:17;;;;;;;;;;;;;;;28.40;38.34;94689.56;4877617;29;9195;-60
2022/09/05 00:41:07;;;;;;;;;;;;;;;28.38;38.56;94687.31;4863764;29;7501;-61
2022/09/05 00:43:39;;;;;;;;;;;;;;;28.38;38.51;94690.06;4886420;29;7520;-61
2022/09/05 00:46:13;;;;;;;;;;;;;;;28.40;38.38;94686.03;4931580;28;9061;-60
2022/09/05 00:49:11;;;;;;;;;;;;;;;28.38;38.40;94686.56;4930776;28;7677;-61
2022/09/05 00:52:29;;;;;;;;;;;;;;;28.38;38.49;94691.34;4916226;29;7237;-61
2022/09/05 00:55:16;;;;;;;;;;;;;;;28.38;38.63;94694.13;4917537;29;8387;-61
2022/09/05 00:58:11;;;;;;;;;;;;;;;28.37;38.49;94690.59;4925234;29;6909;-60
2022/09/05 01:00:54;;;;;;;;;;;;;;;28.36;38.68;94692.63;4928258;29;9760;-61
2022/09/05 01:03:57;;;;;;;;;;;;;;;28.36;38.83;94697.41;4917554;29;7228;-61
2022/09/05 01:06:51;;;;;;;;;;;;;;;28.34;38.98;94689.63;4964883;28;9127;-61
2022/09/05 01:13:36;;;;;;;;;;;;;;;28.32;38.55;94685.88;4969065;28;7355;-61
2022/09/05 01:16:40;;;;;;;;;;;;;;;28.31;38.61;94681.63;4973939;28;7860;-61
2022/09/05 01:19:50;;;;;;;;;;;;;;;28.31;38.84;94689.94;4879781;29;9067;-61
2022/09/05 01:22:34;;;;;;;;;;;;;;;28.31;38.77;94681.63;4898790;29;7082;-61
2022/09/05 01:25:15;;;;;;;;;;;;;;;28.28;38.60;94683.41;4902245;29;7216;-61
2022/09/05 01:28:21;;;;;;;;;;;;;;;28.30;38.59;94680.13;4901979;29;7270;-60
2022/09/05 01:30:55;;;;;;;;;;;;;;;28.30;38.46;94680.88;4899403;29;6974;-61
2022/09/05 01:37:21;;;;;;;;;;;;;;;28.30;38.38;94677.34;4902894;29;9450;-61
2022/09/05 01:40:12;;;;;;;;;;;;;;;28.29;38.68;94673.09;4885303;29;7308;-61
2022/09/05 01:43:02;;;;;;;;;;;;;;;28.30;38.21;94674.59;4885205;29;7216;-61
2022/09/05 01:45:49;;;;;;;;;;;;;;;28.28;38.60;94674.38;4901573;29;9800;-60
2022/09/05 01:48:59;;;;;;;;;;;;;;;28.28;38.96;94679.91;4887715;29;7112;-61
2022/09/05 01:51:53;;;;;;;;;;;;;;;28.27;38.48;94675.66;4880762;29;7309;-61
2022/09/05 01:55:02;;;;;;;;;;;;;;;28.27;38.68;94681.19;4893633;29;7553;-60
2022/09/05 01:57:56;;;;;;;;;;;;;;;28.27;38.65;94668.06;4944663;29;7192;-61
2022/09/05 02:00:54;;;;;;;;;;;;;;;28.26;38.55;94669.38;4947151;29;7471;-60
2022/09/05 02:03:41;;;;;;;;;;;;;;;28.25;38.60;94667.84;4933619;29;7012;-61
2022/09/05 02:06:15;;;;;;;;;;;;;;;28.25;38.62;94667.13;4945283;29;7196;-60
2022/09/05 02:08:59;;;;;;;;;;;;;;;28.24;38.49;94671.16;4932818;29;6986;-61
2022/09/05 02:12:09;;;;;;;;;;;;;;;28.25;38.56;94669.88;4943433;29;7222;-61
2022/09/05 02:15:03;;;;;;;;;;;;;;;28.25;38.26;94669.88;4982903;28;7178;-61
2022/09/05 02:17:41;;;;;;;;;;;;;;;28.24;38.42;94671.91;4991418;28;7441;-60
2022/09/05 02:20:19;;;;;;;;;;;;;;;28.22;38.25;94668.91;4949207;28;1099813;-61
2022/09/05 02:22:59;;;;;;;;;;;;;;;28.23;38.35;94672.44;4989919;28;9466;-61
2022/09/05 02:25:44;;;;;;;;;;;;;;;28.22;38.74;94657.09;4990763;28;9368;-61
2022/09/05 02:28:19;;;;;;;;;;;;;;;28.21;38.63;94656.34;4992061;28;7108;-60
2022/09/05 02:30:55;;;;;;;;;;;;;;;28.20;38.81;94660.38;4990866;28;6985;-61
2022/09/05 02:33:24;;;;;;;;;;;;;;;28.20;38.69;94663.16;4985792;28;7638;-60
2022/09/05 02:36:39;;;;;;;;;;;;;;;28.20;38.47;94654.09;4991185;28;9029;-61
2022/09/05 02:39:28;;;;;;;;;;;;;;;28.18;38.54;94651.88;4990676;28;7213;-60
2022/09/05 02:42:21;;;;;;;;;;;;;;;28.18;38.35;94645.59;4986701;28;7256;-61
2022/09/05 02:45:06;;;;;;;;;;;;;;;28.16;38.75;94646.13;4986121;28;7542;-60
2022/09/05 02:48:07;;;;;;;;;;;;;;;28.16;38.35;94648.88;4965367;28;7204;-60
2022/09/05 02:50:55;;;;;;;;;;;;;;;28.16;38.43;94648.88;4989199;28;7236;-61
2022/09/05 02:53:27;;;;;;;;;;;;;;;28.16;38.85;94637.06;4988053;28;9163;-60
2022/09/05 02:59:19;;;;;;;;;;;;;;;28.12;38.45;94623.50;4989453;28;8330;-61
2022/09/05 03:02:02;;;;;;;;;;;;;;;28.13;38.42;94615.97;5010454;28;7418;-60
2022/09/05 03:05:11;;;;;;;;;;;;;;;28.13;38.55;94622.25;5009409;28;7226;-61
2022/09/05 03:08:25;;;;;;;;;;;;;;;28.13;38.62;94618.72;4953048;28;7248;-61
2022/09/05 03:11:10;;;;;;;;;;;;;;;28.10;39.02;94619.78;4954737;28;6991;-61
2022/09/05 03:20:39;;;;;;;;;;;;;;;28.09;38.58;94632.13;4953499;28;8662;-60
2022/09/05 03:23:34;;;;;;;;;;;;;;;28.08;38.65;94634.13;4940919;28;7300;-61
2022/09/05 03:26:17;;;;;;;;;;;;;;;28.08;38.56;94636.13;4949339;28;7244;-61
2022/09/05 03:29:21;;;;;;;;;;;;;;;28.08;38.46;94625.06;4931907;28;7296;-61
2022/09/05 03:32:09;;;;;;;;;;;;;;;28.07;38.82;94627.13;4948132;28;7236;-61
2022/09/05 03:34:46;;;;;;;;;;;;;;;28.07;38.43;94629.13;4953045;28;7219;-60
2022/09/05 03:37:27;;;;;;;;;;;;;;;28.06;38.38;94619.31;4948717;28;7443;-61
2022/09/05 03:40:18;;;;;;;;;;;;;;;28.06;38.31;94627.63;4950730;28;6998;-61
2022/09/05 03:43:01;;;;;;;;;;;;;;;28.05;38.43;94621.34;4950806;28;7528;-60
2022/09/05 03:45:49;;;;;;;;;;;;;;;28.06;38.54;94627.63;4981135;28;7189;-60
2022/09/05 03:48:25;;;;;;;;;;;;;;;28.05;38.59;94623.38;4983676;28;7242;-60
2022/09/05 03:50:53;;;;;;;;;;;;;;;28.04;38.51;94628.16;5001241;28;7501;-60
2022/09/05 03:53:59;;;;;;;;;;;;;;;28.04;38.38;94630.16;5002413;28;7168;-61
2022/09/05 03:56:38;;;;;;;;;;;;;;;28.03;38.36;94621.13;4993100;28;7233;-61
2022/09/05 03:59:41;;;;;;;;;;;;;;;28.03;38.37;94623.91;5004660;28;7439;-61
2022/09/05 04:02:22;;;;;;;;;;;;;;;28.01;38.56;94623.69;4991602;28;10534;-61
2022/09/05 04:05:23;;;;;;;;;;;;;;;28.01;38.31;94625.69;4990627;28;7349;-61
2022/09/05 04:07:59;;;;;;;;;;;;;;;27.99;38.32;94628.94;5009700;28;7171;-61
2022/09/05 04:10:51;;;;;;;;;;;;;;;27.99;38.27;94637.25;4991806;28;7099;-61
2022/09/05 04:13:44;;;;;;;;;;;;;;;27.99;38.35;94639.28;4978700;28;7213;-60
2022/09/05 04:16:45;;;;;;;;;;;;;;;27.97;38.17;94639.78;4989913;28;7295;-60
2022/09/05 04:19:35;;;;;;;;;;;;;;;27.96;37.85;94649.34;4988976;28;7276;-60
2022/09/05 04:22:20;;;;;;;;;;;;;;;27.96;37.99;94651.34;4991248;28;9559;-60
2022/09/05 04:25:22;;;;;;;;;;;;;;;27.96;38.39;94654.88;5005941;28;7205;-61
2022/09/05 04:28:24;;;;;;;;;;;;;;;27.95;38.07;94660.94;4988094;28;7340;-60
2022/09/05 04:31:25;;;;;;;;;;;;;;;27.93;38.44;94657.91;4995135;28;8398;-60
2022/09/05 04:34:30;;;;;;;;;;;;;;;27.93;38.69;94661.44;4949355;28;7197;-61
2022/09/05 04:37:06;;;;;;;;;;;;;;;27.93;38.38;94664.19;4951317;28;9442;-60
2022/09/05 04:40:21;;;;;;;;;;;;;;;27.93;38.45;94668.97;4952348;28;7109;-61
2022/09/05 04:42:50;;;;;;;;;;;;;;;27.93;38.54;94666.19;4909089;29;7345;-61
2022/09/05 04:45:49;;;;;;;;;;;;;;;27.94;37.92;94667.72;4896360;29;7550;-61
2022/09/05 04:49:08;;;;;;;;;;;;;;;27.93;38.66;94672.47;4862762;29;8910;-60
2022/09/05 04:52:21;;;;;;;;;;;;;;;27.93;38.65;94674.50;4842048;29;9608;-60
2022/09/05 04:54:56;;;;;;;;;;;;;;;27.92;39.12;94681.31;4855670;29;6870;-60
2022/09/05 04:57:38;;;;;;;;;;;;;;;27.94;39.25;94687.06;4854907;29;9460;-60
2022/09/05 05:00:24;;;;;;;;;;;;;;;27.97;39.04;94697.09;4837872;29;7232;-60
2022/09/05 05:03:39;;;;;;;;;;;;;;;27.95;39.24;94696.88;4851779;29;7624;-60
2022/09/05 05:09:43;;;;;;;;;;;;;;;27.94;40.81;94695.34;4795903;29;7744;-60
2022/09/05 05:12:52;;;;;;;;;;;;;;;27.92;40.96;94706.94;4801571;29;7940;-60
2022/09/05 05:15:53;;;;;;;;;;;;;;;27.95;39.76;94716.94;4803238;29;7689;-60
2022/09/05 05:18:41;;;;;;;;;;;;;;;27.97;40.08;94725.50;4808656;29;7725;-60
2022/09/05 05:21:23;;;;;;;;;;;;;;;27.95;40.84;94722.47;4821774;29;6998;-61
2022/09/05 05:24:12;;;;;;;;;;;;;;;27.98;40.49;94731.78;4846317;29;8322;-61
2022/09/05 05:26:50;;;;;;;;;;;;;;;27.96;40.03;94726.75;4871612;29;7007;-61
2022/09/05 05:29:34;;;;;;;;;;;;;;;27.98;40.34;94731.78;4873502;29;7010;-61
2022/09/05 05:32:22;;;;;;;;;;;;;;;27.96;40.33;94729.50;4869555;29;7492;-61
2022/09/05 05:35:01;;;;;;;;;;;;;;;27.95;40.43;94732.81;4867452;29;7266;-60
2022/09/05 05:38:03;;;;;;;;;;;;;;;27.95;39.89;94741.09;4873925;29;9786;-61
2022/09/05 05:41:28;;;;;;;;;;;;;;;27.96;40.25;94748.88;4871656;29;10447;-61
2022/09/05 05:43:54;;;;;;;;;;;;;;;27.98;40.49;94751.13;4944969;28;6877;-60
2022/09/05 05:46:38;;;;;;;;;;;;;;;27.96;40.45;94750.88;4947050;28;9722;-60
2022/09/05 05:49:32;;;;;;;;;;;;;;;27.95;40.24;94757.69;4950335;28;7567;-60
2022/09/05 05:52:36;;;;;;;;;;;;;;;27.97;40.41;94755.16;4974950;28;7164;-61
2022/09/05 05:55:15;;;;;;;;;;;;;;;27.95;40.22;94752.16;4986545;28;7241;-60
2022/09/05 05:57:43;;;;;;;;;;;;;;;27.95;39.82;94754.94;4989135;28;8946;-60
2022/09/05 06:00:49;;;;;;;;;;;;;;;27.97;40.19;94753.16;5004523;28;7339;-60
2022/09/05 06:03:58;;;;;;;;;;;;;;;27.99;40.34;94755.41;5004058;28;8187;-60
2022/09/05 06:06:41;;;;;;;;;;;;;;;28.01;40.21;94763.94;5004848;28;7232;-61
2022/09/05 06:09:46;;;;;;;;;;;;;;;27.99;40.02;94760.94;4988304;28;6851;-61
2022/09/05 06:13:10;;;;;;;;;;;;;;;28.00;40.40;94759.66;4990244;28;7071;-60
2022/09/05 06:16:21;;;;;;;;;;;;;;;27.97;40.57;94763.44;5009899;28;7165;-60
2022/09/05 06:19:10;;;;;;;;;;;;;;;27.94;40.51;94765.22;4992672;28;9009;-61
2022/09/05 06:22:00;;;;;;;;;;;;;;;27.93;40.54;94783.06;4993533;28;7247;-61
2022/09/05 06:25:03;;;;;;;;;;;;;;;27.92;40.67;94769.78;5008961;28;7113;-61
2022/09/05 06:27:54;;;;;;;;;;;;;;;27.93;40.72;94772.00;5015621;28;7175;-61
2022/09/05 06:31:13;;;;;;;;;;;;;;;27.94;40.80;94775.53;4999039;28;9437;-60
2022/09/05 06:34:20;;;;;;;;;;;;;;;27.94;40.87;94775.53;5009349;28;7037;-60
2022/09/05 06:37:32;;;;;;;;;;;;;;;27.95;40.72;94766.00;4996302;28;7010;-60
2022/09/05 06:40:33;;;;;;;;;;;;;;;27.97;40.73;94763.44;4994763;28;7187;-61
2022/09/05 06:43:11;;;;;;;;;;;;;;;27.98;40.80;94765.72;4993188;28;7339;-60
2022/09/05 06:45:44;;;;;;;;;;;;;;;27.98;40.51;94771.25;5001983;28;7057;-60
2022/09/05 06:48:20;;;;;;;;;;;;;;;27.97;40.69;94764.22;4989253;28;7359;-61
2022/09/05 06:51:21;;;;;;;;;;;;;;;27.98;40.51;94771.25;4992866;28;7479;-60
2022/09/05 06:54:34;;;;;;;;;;;;;;;27.98;40.56;94774.00;4996839;28;7605;-60
2022/09/05 07:00:36;;;;;;;;;;;;;;;27.96;40.72;94778.53;4996525;28;8883;-60
2022/09/05 07:03:40;;;;;;;;;;;;;;;27.95;40.78;94791.59;4994270;28;7654;-60
2022/09/05 07:06:29;;;;;;;;;;;;;;;27.95;40.81;94785.34;4994239;28;8860;-60
2022/09/05 07:09:20;;;;;;;;;;;;;;;27.95;40.89;94788.84;4993411;28;9435;-60
2022/09/05 07:11:58;;;;;;;;;;;;;;;27.95;40.73;94783.31;5007404;28;7470;-60
2022/09/05 07:14:30;;;;;;;;;;;;;;;27.93;40.97;94774.03;5004564;28;7957;-60
2022/09/05 07:17:10;;;;;;;;;;;;;;;27.96;40.74;94781.28;4985436;28;7639;-60
2022/09/05 07:19:59;;;;;;;;;;;;;;;27.93;40.97;94790.63;5002447;28;7610;-61
2022/09/05 07:22:48;;;;;;;;;;;;;;;27.93;40.83;94787.84;4989272;28;7009;-60
2022/09/05 07:25:24;;;;;;;;;;;;;;;27.92;41.13;94791.88;5001143;28;7256;-60
2022/09/05 07:28:11;;;;;;;;;;;;;;;27.92;41.11;94787.13;4989987;28;7962;-61
2022/09/05 07:30:45;;;;;;;;;;;;;;;27.92;41.08;94789.88;4990981;28;7049;-60
2022/09/05 07:33:23;;;;;;;;;;;;;;;27.89;40.80;94792.91;4988588;28;9753;-60
2022/09/05 07:36:10;;;;;;;;;;;;;;;27.87;40.63;94793.44;4994767;28;9106;-61
2022/09/05 07:38:51;;;;;;;;;;;;;;;27.89;41.30;94801.22;4988074;28;9425;-60
2022/09/05 07:41:38;;;;;;;;;;;;;;;27.89;41.13;94801.22;4997902;28;8219;-61
2022/09/05 07:44:20;;;;;;;;;;;;;;;27.91;41.21;94804.19;4993519;28;7131;-61
2022/09/05 07:47:15;;;;;;;;;;;;;;;27.89;41.14;94799.19;5006014;28;7397;-60
2022/09/05 07:50:03;;;;;;;;;;;;;;;27.91;41.21;94806.97;4989906;28;7177;-60
2022/09/05 07:52:50;;;;;;;;;;;;;;;27.88;41.26;94803.25;4994779;28;7332;-61
2022/09/05 07:55:40;;;;;;;;;;;;;;;27.93;41.42;94821.03;4993581;28;8229;-60
2022/09/05 07:58:13;;;;;;;;;;;;;;;27.92;41.01;94800.94;4972953;28;9329;-61
2022/09/05 08:00:59;;;;;;;;;;;;;;;27.93;41.54;94812.72;4983421;28;7092;-60
2022/09/05 08:03:28;;;;;;;;;;;;;;;27.91;41.39;94820.78;5009445;28;7164;-60
2022/09/05 08:06:03;;;;;;;;;;;;;;;27.94;41.19;94817.00;4992992;28;7180;-61
2022/09/05 08:09:00;;;;;;;;;;;;;;;27.92;41.63;94819.53;4991579;28;9608;-60
2022/09/05 08:11:39;;;;;;;;;;;;;;;27.89;41.32;94824.09;4996577;28;7183;-61
2022/09/05 08:14:21;;;;;;;;;;;;;;;27.89;41.92;94820.56;4985046;28;7302;-60
2022/09/05 08:16:52;;;;;;;;;;;;;;;27.90;41.33;94824.84;5006826;28;7019;-60
2022/09/05 08:19:55;;;;;;;;;;;;;;;27.90;41.52;94835.91;4977133;28;8500;-60
2022/09/05 08:22:30;;;;;;;;;;;;;;;27.89;41.64;94831.63;4996980;28;7194;-61
2022/09/05 08:25:07;;;;;;;;;;;;;;;27.89;41.62;94840.66;4991303;28;7487;-60
2022/09/05 08:27:53;;;;;;;;;;;;;;;27.90;42.05;94844.94;5008677;28;7242;-61
2022/09/05 08:30:52;;;;;;;;;;;;;;;27.90;41.70;94846.97;5011737;28;7225;-60
2022/09/05 08:33:34;;;;;;;;;;;;;;;27.90;41.83;94835.91;5006456;28;7451;-61
2022/09/05 08:36:28;;;;;;;;;;;;;;;27.90;41.72;94835.91;5012737;28;6997;-61
2022/09/05 08:39:24;;;;;;;;;;;;;;;27.90;41.78;94841.44;5009088;28;9679;-61
2022/09/05 08:42:12;;;;;;;;;;;;;;;27.89;42.01;94828.84;4950981;28;7374;-61
2022/09/05 08:45:11;;;;;;;;;;;;;;;27.89;41.91;94834.38;4953197;28;7713;-61
2022/09/05 08:48:05;;;;;;;;;;;;;;;27.88;41.95;94839.19;4952602;28;7531;-61
2022/09/05 08:50:49;;;;;;;;;;;;;;;27.88;42.32;94849.50;4948636;28;9406;-61
2022/09/05 08:53:20;;;;;;;;;;;;;;;27.89;42.01;94853.75;4949857;28;7297;-61
2022/09/05 08:56:00;;;;;;;;;;;;;;;27.88;41.60;94850.25;4949088;28;7120;-61
2022/09/05 08:59:13;;;;;;;;;;;;;;;27.89;42.10;94843.44;4929683;28;7294;-60
2022/09/05 09:01:44;;;;;;;;;;;;;;;27.89;42.00;94848.97;4953475;28;7478;-61
2022/09/05 09:05:06;;;;;;;;;;;;;;;27.90;41.93;94847.72;4950962;28;7365;-60
2022/09/05 09:08:12;;;;;;;;;;;;;;;27.89;42.02;94843.44;4927239;29;7202;-61
2022/09/05 09:11:04;;;;;;;;;;;;;;;27.89;42.06;94843.44;4930099;29;9330;-61
2022/09/05 09:13:50;;;;;;;;;;;;;;;27.89;41.68;94845.44;4931979;29;10413;-60
2022/09/05 09:16:39;;;;;;;;;;;;;;;27.89;41.94;94834.38;4931001;29;7210;-60
2022/09/05 09:19:35;;;;;;;;;;;;;;;27.89;42.26;94828.84;4938429;28;8311;-60
2022/09/05 09:22:04;;;;;;;;;;;;;;;27.87;42.24;94836.91;4946995;28;9104;-60
2022/09/05 09:24:48;;;;;;;;;;;;;;;27.88;42.16;94832.91;4943256;28;7086;-60
2022/09/05 09:27:21;;;;;;;;;;;;;;;27.89;42.34;94829.63;4959498;28;7288;-61
2022/09/05 09:29:53;;;;;;;;;;;;;;;27.89;41.83;94824.09;4942321;28;7310;-61
2022/09/05 09:32:36;;;;;;;;;;;;;;;27.88;41.96;94824.59;4948852;28;7089;-60
2022/09/05 09:35:09;;;;;;;;;;;;;;;27.87;42.31;94825.84;4956351;28;7006;-61
2022/09/05 09:38:08;;;;;;;;;;;;;;;27.87;42.40;94821.09;4946446;28;7308;-60
2022/09/05 09:40:52;;;;;;;;;;;;;;;27.88;42.31;94825.38;4962812;28;6972;-61
2022/09/05 09:43:58;;;;;;;;;;;;;;;27.89;42.10;94823.31;5003760;28;7199;-60
2022/09/05 09:46:45;;;;;;;;;;;;;;;27.89;42.18;94832.38;4966076;28;7207;-61
2022/09/05 09:49:40;;;;;;;;;;;;;;;27.90;42.32;94824.84;4959623;28;7199;-61
2022/09/05 09:52:39;;;;;;;;;;;;;;;27.88;42.30;94821.84;4989838;28;10412;-61
2022/09/05 09:55:47;;;;;;;;;;;;;;;27.89;42.34;94817.78;4970538;28;7240;-60
2022/09/05 09:58:50;;;;;;;;;;;;;;;27.89;42.45;94815.03;4976340;28;9373;-61
2022/09/05 10:01:37;;;;;;;;;;;;;;;27.89;42.60;94807.50;4972091;28;8122;-60
2022/09/05 10:04:06;;;;;;;;;;;;;;;27.91;42.30;94810.50;4972842;28;7492;-61
2022/09/05 10:06:53;;;;;;;;;;;;;;;27.92;42.19;94800.19;4992089;28;7208;-61
2022/09/05 10:09:52;;;;;;;;;;;;;;;27.90;42.22;94794.44;4976027;28;9431;-61
2022/09/05 10:12:57;;;;;;;;;;;;;;;27.89;42.03;94806.75;4974642;28;7247;-61
2022/09/05 10:15:54;;;;;;;;;;;;;;;27.88;42.27;94800.47;4976331;28;7313;-61
2022/09/05 10:18:51;;;;;;;;;;;;;;;27.89;42.18;94806.75;4941748;28;7069;-60
2022/09/05 10:21:37;;;;;;;;;;;;;;;27.90;42.33;94808.25;4956578;28;7034;-61
2022/09/05 10:24:05;;;;;;;;;;;;;;;27.89;42.21;94807.50;4936320;28;6954;-60
2022/09/05 10:26:34;;;;;;;;;;;;;;;27.89;42.21;94801.22;4970626;28;7140;-60
2022/09/05 10:29:38;;;;;;;;;;;;;;;27.90;42.15;94794.44;4969075;28;7241;-61
2022/09/05 10:32:32;;;;;;;;;;;;;;;27.88;42.07;94786.66;4969873;28;9387;-61
2022/09/05 10:35:12;;;;;;;;;;;;;;;27.89;42.41;94790.16;4966492;28;7265;-61
2022/09/05 10:37:50;;;;;;;;;;;;;;;27.88;42.23;94786.66;4969004;28;6864;-61
2022/09/05 10:40:22;;;;;;;;;;;;;;;27.89;42.48;94787.38;4945237;28;9570;-61
2022/09/05 10:43:21;;;;;;;;;;;;;;;27.90;42.36;94797.19;4952956;28;6996;-60
2022/09/05 10:46:12;;;;;;;;;;;;;;;27.92;42.27;94784.34;4961393;28;7393;-61
2022/09/05 10:48:53;;;;;;;;;;;;;;;27.91;42.04;94782.84;4941500;28;7536;-60
2022/09/05 10:52:09;;;;;;;;;;;;;;;27.93;42.24;94780.31;4960066;28;7271;-61
2022/09/05 10:55:00;;;;;;;;;;;;;;;27.94;42.20;94778.31;4907053;29;7164;-60
2022/09/05 10:57:50;;;;;;;;;;;;;;;27.93;41.72;94772.00;4913757;29;6963;-60
2022/09/05 11:00:53;;;;;;;;;;;;;;;27.96;42.22;94773.00;4930333;28;7184;-61
2022/09/05 11:04:09;;;;;;;;;;;;;;;27.97;41.98;94769.75;4907527;29;7012;-61
2022/09/05 11:07:01;;;;;;;;;;;;;;;27.99;42.23;94772.00;4861165;29;7280;-60
2022/09/05 11:10:10;;;;;;;;;;;;;;;27.98;42.24;94762.97;4876707;29;8841;-60
2022/09/05 11:13:04;;;;;;;;;;;;;;;27.98;42.20;94753.91;4850962;29;7433;-61
2022/09/05 11:16:07;;;;;;;;;;;;;;;27.97;42.31;94753.16;4849668;29;7332;-61
2022/09/05 11:19:04;;;;;;;;;;;;;;;27.99;42.08;94744.34;4864456;29;7247;-61
2022/09/05 11:21:38;;;;;;;;;;;;;;;28.01;42.19;94744.59;4861461;29;7422;-60
2022/09/05 11:24:33;;;;;;;;;;;;;;;28.01;42.08;94741.81;4849476;29;8601;-61
2022/09/05 11:27:24;;;;;;;;;;;;;;;28.01;42.19;94734.28;4803841;29;9439;-60
2022/09/05 11:30:09;;;;;;;;;;;;;;;28.01;42.33;94730.75;4883632;29;9366;-61
2022/09/05 11:32:46;;;;;;;;;;;;;;;28.01;42.24;94730.75;4881055;29;8381;-61
2022/09/05 11:35:25;;;;;;;;;;;;;;;28.02;42.40;94726.72;4884560;29;7254;-61
2022/09/05 11:38:07;;;;;;;;;;;;;;;28.04;42.07;94724.94;4884018;29;9414;-61
2022/09/05 11:41:03;;;;;;;;;;;;;;;28.06;42.42;94727.91;4882784;29;7297;-60
2022/09/05 11:43:48;;;;;;;;;;;;;;;28.06;42.34;94718.88;4913020;29;7454;-61
2022/09/05 11:46:30;;;;;;;;;;;;;;;28.06;42.12;94727.91;4920727;29;7183;-60
2022/09/05 11:49:15;;;;;;;;;;;;;;;28.07;42.41;94718.38;4922233;28;7914;-60
2022/09/05 11:52:00;;;;;;;;;;;;;;;28.07;42.10;94717.63;4938099;28;6987;-60
2022/09/05 11:54:47;;;;;;;;;;;;;;;28.08;42.27;94708.03;4923534;29;9048;-60
2022/09/05 11:57:41;;;;;;;;;;;;;;;28.08;42.12;94710.81;4940070;28;9698;-60
2022/09/05 12:00:26;;;;;;;;;;;;;;;28.09;42.36;94706.78;4917375;28;7268;-60
2022/09/05 12:03:07;;;;;;;;;;;;;;;28.10;42.25;94705.53;4953813;28;7252;-61
2022/09/05 12:05:51;;;;;;;;;;;;;;;28.10;42.20;94705.53;5002867;28;8770;-60
2022/09/05 12:08:19;;;;;;;;;;;;;;;28.10;42.40;94695.19;5005869;28;9538;-60
2022/09/05 12:11:06;;;;;;;;;;;;;;;28.11;42.40;94691.16;4989627;28;7395;-60
2022/09/05 12:14:05;;;;;;;;;;;;;;;28.10;42.40;94684.13;5008215;28;7816;-60
2022/09/05 12:16:45;;;;;;;;;;;;;;;28.12;42.42;94689.16;4988092;28;9410;-60
2022/09/05 12:19:48;;;;;;;;;;;;;;;28.14;42.61;94683.84;4998526;28;7161;-61
2022/09/05 12:22:31;;;;;;;;;;;;;;;28.12;42.57;94681.59;4911366;29;7711;-61
2022/09/05 12:25:10;;;;;;;;;;;;;;;28.14;42.28;94686.63;4914153;29;7658;-60
2022/09/05 12:27:42;;;;;;;;;;;;;;;28.15;42.26;94693.63;4914202;29;9746;-60
2022/09/05 12:30:12;;;;;;;;;;;;;;;28.15;42.59;94688.84;4898071;29;9699;-61
2022/09/05 12:32:57;;;;;;;;;;;;;;;28.17;42.08;94677.25;4897107;29;9391;-60
2022/09/05 12:35:30;;;;;;;;;;;;;;;28.17;42.53;94671.72;4916687;29;7325;-61
2022/09/05 12:38:37;;;;;;;;;;;;;;;28.16;42.45;94679.31;4914013;29;6902;-60
2022/09/05 12:41:23;;;;;;;;;;;;;;;28.15;42.59;94668.75;4911902;29;9401;-61
2022/09/05 12:43:49;;;;;;;;;;;;;;;28.17;42.24;94669.72;4912968;29;9434;-61
2022/09/05 12:46:54;;;;;;;;;;;;;;;28.16;42.71;94659.94;4913180;29;7224;-61
2022/09/05 12:49:37;;;;;;;;;;;;;;;28.17;42.36;94672.47;4897939;29;7141;-60
2022/09/05 12:52:30;;;;;;;;;;;;;;;28.18;42.77;94673.25;4933127;28;9918;-60
2022/09/05 12:55:28;;;;;;;;;;;;;;;28.19;42.77;94658.13;4913137;29;9564;-60
2022/09/05 12:58:15;;;;;;;;;;;;;;;28.19;43.13;94658.13;4934212;28;7163;-61
2022/09/05 13:00:58;;;;;;;;;;;;;;;28.20;43.19;94654.09;4998894;28;7954;-61
2022/09/05 13:03:56;;;;;;;;;;;;;;;28.24;43.23;94657.31;4987220;28;9469;-61
2022/09/05 13:06:49;;;;;;;;;;;;;;;28.24;43.32;94651.78;4949849;28;7645;-61
2022/09/05 13:09:52;;;;;;;;;;;;;;;28.25;42.98;94654.03;4951831;28;7106;-61
2022/09/05 13:12:28;;;;;;;;;;;;;;;28.25;42.94;94647.75;4950867;28;7289;-61
2022/09/05 13:15:36;;;;;;;;;;;;;;;28.25;42.90;94648.50;4950843;28;7255;-61
2022/09/05 13:18:22;;;;;;;;;;;;;;;28.28;43.12;94646.69;4945556;29;7010;-61
2022/09/05 13:21:24;;;;;;;;;;;;;;;28.29;43.00;94634.38;4955007;28;7801;-60
2022/09/05 13:24:05;;;;;;;;;;;;;;;28.30;43.00;94630.31;4864149;29;7323;-61
2022/09/05 13:26:48;;;;;;;;;;;;;;;28.31;43.37;94635.34;4883963;29;7719;-61
2022/09/05 13:29:32;;;;;;;;;;;;;;;28.31;43.25;94632.59;4878957;29;7029;-60
2022/09/05 13:32:04;;;;;;;;;;;;;;;28.33;42.87;94621.00;4878816;29;7266;-61
2022/09/05 13:34:59;;;;;;;;;;;;;;;28.33;43.06;94624.50;4878764;29;7644;-61
2022/09/05 13:38:05;;;;;;;;;;;;;;;28.35;42.81;94623.97;4885268;29;7262;-60
2022/09/05 13:40:50;;;;;;;;;;;;;;;28.36;42.35;94619.97;4880001;29;7127;-61
2022/09/05 13:43:45;;;;;;;;;;;;;;;28.38;42.98;94614.66;4896112;29;9332;-61
2022/09/05 13:46:32;;;;;;;;;;;;;;;28.40;42.84;94611.34;4913492;29;7069;-61
2022/09/05 13:49:33;;;;;;;;;;;;;;;28.38;42.71;94612.59;4915851;29;8277;-60
2022/09/05 13:52:26;;;;;;;;;;;;;;;28.40;43.08;94608.56;4889435;29;7205;-61
2022/09/05 13:55:36;;;;;;;;;;;;;;;28.40;43.37;94603.03;4886874;29;7337;-60
2022/09/05 13:58:41;;;;;;;;;;;;;;;28.40;43.59;94605.81;4883720;29;8453;-61
2022/09/05 14:01:19;;;;;;;;;;;;;;;28.38;43.55;94601.53;4934484;28;7026;-60
2022/09/05 14:04:04;;;;;;;;;;;;;;;28.40;43.51;94605.81;4916012;29;7745;-60
2022/09/05 14:07:05;;;;;;;;;;;;;;;28.41;43.28;94590.69;4922106;29;6999;-60
2022/09/05 14:10:21;;;;;;;;;;;;;;;28.41;43.31;94591.44;4919952;29;7213;-60
2022/09/05 14:13:04;;;;;;;;;;;;;;;28.42;43.76;94589.44;4859557;29;7528;-61
2022/09/05 14:15:56;;;;;;;;;;;;;;;28.46;43.66;94596.16;4846868;29;7383;-61
2022/09/05 14:21:42;;;;;;;;;;;;;;;28.47;42.85;94589.34;4865600;29;9449;-61
2022/09/05 14:24:12;;;;;;;;;;;;;;;28.50;43.56;94590.31;4868893;29;10234;-61
2022/09/05 14:26:48;;;;;;;;;;;;;;;28.52;43.19;94591.28;4880819;29;7324;-61
2022/09/05 14:29:44;;;;;;;;;;;;;;;28.52;42.94;94585.75;4908478;29;9105;-61
2022/09/05 14:32:13;;;;;;;;;;;;;;;28.51;42.87;94578.75;4910655;29;7200;-60
2022/09/05 14:35:09;;;;;;;;;;;;;;;28.52;43.32;94585.00;4913453;29;8325;-60
2022/09/05 14:41:18;;;;;;;;;;;;;;;28.57;43.18;94570.34;4872740;29;8318;-61
2022/09/05 14:44:05;;;;;;;;;;;;;;;28.61;42.80;94557.72;4876566;29;7198;-60
2022/09/05 14:46:48;;;;;;;;;;;;;;;28.62;42.44;94567.53;4898141;28;7504;-60
2022/09/05 14:49:57;;;;;;;;;;;;;;;28.63;42.78;94563.47;4917623;29;7279;-61
2022/09/05 14:52:33;;;;;;;;;;;;;;;28.64;42.86;94562.22;4917688;28;7346;-60
2022/09/05 14:55:13;;;;;;;;;;;;;;;28.68;42.69;94564.66;4915448;29;9148;-60
2022/09/05 14:57:46;;;;;;;;;;;;;;;28.67;43.13;94552.84;4931474;28;7191;-60
2022/09/05 15:00:16;;;;;;;;;;;;;;;28.68;43.32;94562.66;4931616;28;7337;-60
2022/09/05 15:03:13;;;;;;;;;;;;;;;28.71;42.43;94556.03;4931841;28;7316;-60
2022/09/05 15:05:50;;;;;;;;;;;;;;;28.77;42.84;94556.72;4889712;29;6961;-61
2022/09/05 15:08:32;;;;;;;;;;;;;;;28.79;42.60;94556.94;4875216;29;9421;-60
2022/09/05 15:11:08;;;;;;;;;;;;;;;28.80;42.36;94563.19;4833234;29;7875;-61
2022/09/05 15:13:55;;;;;;;;;;;;;;;28.81;42.68;94554.38;4839403;29;8868;-61
2022/09/05 15:16:27;;;;;;;;;;;;;;;28.83;42.14;94562.91;4834562;29;7354;-61
2022/09/05 15:19:09;;;;;;;;;;;;;;;28.83;42.24;94554.59;4886861;29;7995;-61
2022/09/05 15:22:24;;;;;;;;;;;;;;;28.83;42.32;94571.22;4905027;29;7378;-60
2022/09/05 15:25:17;;;;;;;;;;;;;;;28.82;42.07;94558.63;4859159;29;8571;-60
2022/09/05 15:28:19;;;;;;;;;;;;;;;28.83;42.81;94553.84;4867403;29;7447;-60